PWSweather.com
Personal Weather Stations
Station Observations
KVAGLENALL
West Henrico, Glen Allen, VA 23060-6503

West HenricoGlen Allen, VA 23060-6503

Lat: 37.6554, Lon: -77.5693

Elevation: 273

Station Type: Davis Vantage Pro II

www.glenallenweather.com

High Low Average
Temperature 67.6°F19.8°C 46.2°F7.9°C 61.5°F16.4°C
Dew Point 64.3°F17.9°C 44.6°F7.0°C 59.4°F15.2°C
Winds 11.0 mph 17.7 kmh Calm Calm 3.0 mph SSE4.8 kmh SSE
Wind Gusts 13.1 mph21.1 kmh -- 6.0 mph9.7 kmh
Humidity 98% 86% 93%
Pressure 30.55 in1034.5 mb 30.36 in1028.1 mb -
Precipitation 0.00 in0.0 mm - -
Hour Temp Dew Point Humidity Winds Wind Gusts Pressure Precip Precip Rate Daily Precip Total
12:00 AM 66.0°F18.9°C 62.7°F17.1°C 89% 3.0 mph SSW4.8 kmh SSW 4.0 mph6.4 kmh 30.39 in1029.1 mb 0.00 in0.0 mm 0.00 in0.0 mm 0.00 in0.0 mm
12:15 AM 65.4°F18.6°C 62.4°F16.9°C 90% 3.0 mph SW4.8 kmh SW 4.0 mph6.4 kmh 30.39 in1029.1 mb 0.00 in0.0 mm 0.00 in0.0 mm 0.00 in0.0 mm
12:30 AM 64.9°F18.3°C 62.2°F16.8°C 91% 1.0 mph S1.6 kmh S 4.0 mph6.4 kmh 30.39 in1029.1 mb 0.00 in0.0 mm 0.00 in0.0 mm 0.00 in0.0 mm
12:45 AM 64.5°F18.1°C 61.8°F16.6°C 91% 1.0 mph S1.6 kmh S 2.0 mph3.2 kmh 30.39 in1029.1 mb 0.00 in0.0 mm 0.00 in0.0 mm 0.00 in0.0 mm
01:00 AM 63.6°F17.6°C 61.6°F16.4°C 93% 1.0 mph S1.6 kmh S 2.0 mph3.2 kmh 30.39 in1029.1 mb 0.00 in0.0 mm 0.00 in0.0 mm 0.00 in0.0 mm
01:15 AM 63.4°F17.4°C 61.4°F16.3°C 93% 1.0 mph S1.6 kmh S 2.0 mph3.2 kmh 30.39 in1029.1 mb 0.00 in0.0 mm 0.00 in0.0 mm 0.00 in0.0 mm
01:30 AM 63.3°F17.4°C 61.3°F16.3°C 93% 3.0 mph S4.8 kmh S 4.0 mph6.4 kmh 30.39 in1029.1 mb 0.00 in0.0 mm 0.00 in0.0 mm 0.00 in0.0 mm
01:45 AM 63.5°F17.5°C 61.5°F16.4°C 93% 1.0 mph SSE1.6 kmh SSE 5.1 mph8.2 kmh 30.39 in1029.1 mb 0.00 in0.0 mm 0.00 in0.0 mm 0.00 in0.0 mm
02:00 AM 63.4°F17.4°C 61.4°F16.3°C 93% Calm Calm 4.0 mph6.4 kmh 30.39 in1029.1 mb 0.00 in0.0 mm 0.00 in0.0 mm 0.00 in0.0 mm
02:15 AM 63.5°F17.5°C 61.5°F16.4°C 93% 2.0 mph SW3.2 kmh SW 5.1 mph8.2 kmh 30.39 in1029.1 mb 0.00 in0.0 mm 0.00 in0.0 mm 0.00 in0.0 mm
02:30 AM 63.3°F17.4°C 61.3°F16.3°C 93% 1.0 mph SW1.6 kmh SW 3.0 mph4.8 kmh 30.39 in1029.1 mb 0.00 in0.0 mm 0.00 in0.0 mm 0.00 in0.0 mm
02:45 AM 63.5°F17.5°C 61.8°F16.6°C 94% 3.0 mph SSW4.8 kmh SSW 6.1 mph9.8 kmh 30.39 in1029.1 mb 0.00 in0.0 mm 0.00 in0.0 mm 0.00 in0.0 mm
03:00 AM 63.7°F17.6°C 61.7°F16.5°C 93% 1.0 mph SW1.6 kmh SW 3.0 mph4.8 kmh 30.39 in1029.1 mb 0.00 in0.0 mm 0.00 in0.0 mm 0.00 in0.0 mm
03:15 AM 63.6°F17.6°C 61.6°F16.4°C 93% 2.0 mph S3.2 kmh S 4.0 mph6.4 kmh 30.38 in1028.8 mb 0.00 in0.0 mm 0.00 in0.0 mm 0.00 in0.0 mm
03:30 AM 63.3°F17.4°C 61.3°F16.3°C 93% 1.0 mph SSW1.6 kmh SSW 4.0 mph6.4 kmh 30.38 in1028.8 mb 0.00 in0.0 mm 0.00 in0.0 mm 0.00 in0.0 mm
03:45 AM 63.0°F17.2°C 61.0°F16.1°C 93% 2.0 mph S3.2 kmh S 3.0 mph4.8 kmh 30.38 in1028.8 mb 0.00 in0.0 mm 0.00 in0.0 mm 0.00 in0.0 mm
04:00 AM 62.6°F17.0°C 60.9°F16.1°C 94% Calm Calm 3.0 mph4.8 kmh 30.38 in1028.8 mb 0.00 in0.0 mm 0.00 in0.0 mm 0.00 in0.0 mm
04:15 AM 62.4°F16.9°C 61.0°F16.1°C 95% Calm Calm -- 30.38 in1028.8 mb 0.00 in0.0 mm 0.00 in0.0 mm 0.00 in0.0 mm
04:30 AM 62.3°F16.8°C 60.9°F16.1°C 95% Calm Calm -- 30.38 in1028.8 mb 0.00 in0.0 mm 0.00 in0.0 mm 0.00 in0.0 mm
04:45 AM 62.0°F16.7°C 60.6°F15.9°C 95% 1.0 mph S1.6 kmh S 3.0 mph4.8 kmh 30.38 in1028.8 mb 0.00 in0.0 mm 0.00 in0.0 mm 0.00 in0.0 mm
05:00 AM 61.8°F16.6°C 60.7°F15.9°C 96% 1.0 mph S1.6 kmh S 2.0 mph3.2 kmh 30.38 in1028.8 mb 0.00 in0.0 mm 0.00 in0.0 mm 0.00 in0.0 mm
05:15 AM 61.7°F16.5°C 60.6°F15.9°C 96% 2.0 mph SSW3.2 kmh SSW 4.0 mph6.4 kmh 30.38 in1028.8 mb 0.00 in0.0 mm 0.00 in0.0 mm 0.00 in0.0 mm
05:30 AM 61.8°F16.6°C 60.7°F15.9°C 96% 3.0 mph SSW4.8 kmh SSW 4.0 mph6.4 kmh 30.38 in1028.8 mb 0.00 in0.0 mm 0.00 in0.0 mm 0.00 in0.0 mm
05:45 AM 62.0°F16.7°C 61.2°F16.2°C 97% 2.0 mph SSW3.2 kmh SSW 4.0 mph6.4 kmh 30.39 in1029.1 mb 0.00 in0.0 mm 0.00 in0.0 mm 0.00 in0.0 mm
06:00 AM 61.2°F16.2°C 60.1°F15.6°C 96% 2.0 mph SSW3.2 kmh SSW 4.0 mph6.4 kmh 30.40 in1029.5 mb 0.00 in0.0 mm 0.00 in0.0 mm 0.00 in0.0 mm
06:15 AM 61.5°F16.4°C 60.7°F15.9°C 97% 1.0 mph SSW1.6 kmh SSW 4.0 mph6.4 kmh 30.40 in1029.5 mb 0.00 in0.0 mm 0.00 in0.0 mm 0.00 in0.0 mm
06:30 AM 61.4°F16.3°C 60.6°F15.9°C 97% 3.0 mph SSW4.8 kmh SSW 4.0 mph6.4 kmh 30.40 in1029.5 mb 0.00 in0.0 mm 0.00 in0.0 mm 0.00 in0.0 mm
06:45 AM 61.1°F16.2°C 60.3°F15.7°C 97% 2.0 mph SSW3.2 kmh SSW 2.0 mph3.2 kmh 30.40 in1029.5 mb 0.00 in0.0 mm 0.00 in0.0 mm 0.00 in0.0 mm
07:00 AM 60.7°F15.9°C 59.9°F15.5°C 97% Calm Calm 2.0 mph3.2 kmh 30.41 in1029.8 mb 0.00 in0.0 mm 0.00 in0.0 mm 0.00 in0.0 mm
07:15 AM 60.8°F16.0°C 60.2°F15.7°C 98% 2.0 mph S3.2 kmh S 4.0 mph6.4 kmh 30.41 in1029.8 mb 0.00 in0.0 mm 0.00 in0.0 mm 0.00 in0.0 mm
07:30 AM 61.4°F16.3°C 60.8°F16.0°C 98% Calm Calm 2.0 mph3.2 kmh 30.41 in1029.8 mb 0.00 in0.0 mm 0.00 in0.0 mm 0.00 in0.0 mm
07:45 AM 61.9°F16.6°C 61.3°F16.3°C 98% 1.0 mph SSW1.6 kmh SSW 2.0 mph3.2 kmh 30.42 in1030.1 mb 0.00 in0.0 mm 0.00 in0.0 mm 0.00 in0.0 mm
08:00 AM 62.6°F17.0°C 62.0°F16.7°C 98% 4.0 mph SW6.4 kmh SW 5.1 mph8.2 kmh 30.42 in1030.1 mb 0.00 in0.0 mm 0.00 in0.0 mm 0.00 in0.0 mm
08:15 AM 63.0°F17.2°C 62.2°F16.8°C 97% 2.0 mph S3.2 kmh S 4.0 mph6.4 kmh 30.42 in1030.1 mb 0.00 in0.0 mm 0.00 in0.0 mm 0.00 in0.0 mm
08:30 AM 63.3°F17.4°C 62.5°F16.9°C 97% 2.0 mph S3.2 kmh S 4.0 mph6.4 kmh 30.43 in1030.5 mb 0.00 in0.0 mm 0.00 in0.0 mm 0.00 in0.0 mm
08:45 AM 63.6°F17.6°C 62.5°F16.9°C 96% 7.0 mph SSW11.3 kmh SSW 9.1 mph14.6 kmh 30.43 in1030.5 mb 0.00 in0.0 mm 0.00 in0.0 mm 0.00 in0.0 mm
09:00 AM 63.8°F17.7°C 62.7°F17.1°C 96% 3.0 mph S4.8 kmh S 4.0 mph6.4 kmh 30.43 in1030.5 mb 0.00 in0.0 mm 0.00 in0.0 mm 0.00 in0.0 mm
09:15 AM 63.5°F17.5°C 62.4°F16.9°C 96% 7.0 mph SW11.3 kmh SW 9.1 mph14.6 kmh 30.44 in1030.8 mb 0.00 in0.0 mm 0.00 in0.0 mm 0.00 in0.0 mm
09:30 AM 64.3°F17.9°C 62.9°F17.2°C 95% 6.0 mph SSW9.7 kmh SSW 13.1 mph21.1 kmh 30.44 in1030.8 mb 0.00 in0.0 mm 0.00 in0.0 mm 0.00 in0.0 mm
09:45 AM 65.3°F18.5°C 63.6°F17.6°C 94% 4.0 mph SW6.4 kmh SW 10.1 mph16.3 kmh 30.44 in1030.8 mb 0.00 in0.0 mm 0.00 in0.0 mm 0.00 in0.0 mm
10:00 AM 65.7°F18.7°C 63.7°F17.6°C 93% 2.0 mph SSW3.2 kmh SSW 7.1 mph11.4 kmh 30.43 in1030.5 mb 0.00 in0.0 mm 0.00 in0.0 mm 0.00 in0.0 mm
10:15 AM 66.2°F19.0°C 63.8°F17.7°C 92% 4.0 mph SE6.4 kmh SE 11.1 mph17.9 kmh 30.43 in1030.5 mb 0.00 in0.0 mm 0.00 in0.0 mm 0.00 in0.0 mm
10:30 AM 66.2°F19.0°C 63.8°F17.7°C 92% 11.0 mph SW17.7 kmh SW 11.1 mph17.9 kmh 30.44 in1030.8 mb 0.00 in0.0 mm 0.00 in0.0 mm 0.00 in0.0 mm
10:45 AM 66.4°F19.1°C 63.7°F17.6°C 91% 7.0 mph S11.3 kmh S 7.1 mph11.4 kmh 30.43 in1030.5 mb 0.00 in0.0 mm 0.00 in0.0 mm 0.00 in0.0 mm
11:00 AM 66.7°F19.3°C 64.0°F17.8°C 91% 5.0 mph SW8.0 kmh SW 11.1 mph17.9 kmh 30.43 in1030.5 mb 0.00 in0.0 mm 0.00 in0.0 mm 0.00 in0.0 mm
11:15 AM 66.9°F19.4°C 63.9°F17.7°C 90% 5.0 mph SSW8.0 kmh SSW 7.1 mph11.4 kmh 30.43 in1030.5 mb 0.00 in0.0 mm 0.00 in0.0 mm 0.00 in0.0 mm
11:30 AM 67.0°F19.4°C 64.0°F17.8°C 90% 7.0 mph SW11.3 kmh SW 10.1 mph16.3 kmh 30.43 in1030.5 mb 0.00 in0.0 mm 0.00 in0.0 mm 0.00 in0.0 mm
11:45 AM 67.4°F19.7°C 64.1°F17.8°C 89% 6.0 mph SSW9.7 kmh SSW 7.1 mph11.4 kmh 30.43 in1030.5 mb 0.00 in0.0 mm 0.00 in0.0 mm 0.00 in0.0 mm
12:00 PM 67.5°F19.7°C 64.2°F17.9°C 89% 6.0 mph SSW9.7 kmh SSW 9.1 mph14.6 kmh 30.42 in1030.1 mb 0.00 in0.0 mm 0.00 in0.0 mm 0.00 in0.0 mm
12:15 PM 67.6°F19.8°C 64.3°F17.9°C 89% 7.0 mph SSW11.3 kmh SSW 9.1 mph14.6 kmh 30.42 in1030.1 mb 0.00 in0.0 mm 0.00 in0.0 mm 0.00 in0.0 mm
12:30 PM 67.4°F19.7°C 63.1°F17.3°C 86% 3.0 mph N4.8 kmh N 3.0 mph4.8 kmh 30.41 in1029.8 mb 0.00 in0.0 mm 0.00 in0.0 mm 0.00 in0.0 mm
12:45 PM 64.8°F18.2°C 61.2°F16.2°C 88% 4.0 mph N6.4 kmh N 6.1 mph9.8 kmh 30.40 in1029.5 mb 0.00 in0.0 mm 0.00 in0.0 mm 0.00 in0.0 mm
01:00 PM 63.5°F17.5°C 60.2°F15.7°C 89% 4.0 mph NNE6.4 kmh NNE 5.1 mph8.2 kmh 30.39 in1029.1 mb 0.00 in0.0 mm 0.00 in0.0 mm 0.00 in0.0 mm
01:15 PM 62.8°F17.1°C 59.5°F15.3°C 89% 5.0 mph NE8.0 kmh NE 8.1 mph13.0 kmh 30.39 in1029.1 mb 0.00 in0.0 mm 0.00 in0.0 mm 0.00 in0.0 mm
01:30 PM 62.3°F16.8°C 59.0°F15.0°C 89% 7.0 mph NNE11.3 kmh NNE 7.1 mph11.4 kmh 30.38 in1028.8 mb 0.00 in0.0 mm 0.00 in0.0 mm 0.00 in0.0 mm
01:45 PM 61.7°F16.5°C 59.1°F15.1°C 91% 3.0 mph NE4.8 kmh NE 4.0 mph6.4 kmh 30.37 in1028.4 mb 0.00 in0.0 mm 0.00 in0.0 mm 0.00 in0.0 mm
02:00 PM 61.6°F16.4°C 58.7°F14.8°C 90% 4.0 mph NNE6.4 kmh NNE 8.1 mph13.0 kmh 30.37 in1028.4 mb 0.00 in0.0 mm 0.00 in0.0 mm 0.00 in0.0 mm
02:15 PM 61.5°F16.4°C 58.6°F14.8°C 90% 2.0 mph NW3.2 kmh NW 8.1 mph13.0 kmh 30.37 in1028.4 mb 0.00 in0.0 mm 0.00 in0.0 mm 0.00 in0.0 mm
02:30 PM 61.4°F16.3°C 58.5°F14.7°C 90% 3.0 mph NE4.8 kmh NE 10.1 mph16.3 kmh 30.37 in1028.4 mb 0.00 in0.0 mm 0.00 in0.0 mm 0.00 in0.0 mm
02:45 PM 60.9°F16.1°C 58.3°F14.6°C 91% 6.0 mph NNE9.7 kmh NNE 8.1 mph13.0 kmh 30.37 in1028.4 mb 0.00 in0.0 mm 0.00 in0.0 mm 0.00 in0.0 mm
03:00 PM 61.9°F16.6°C 58.6°F14.8°C 89% 3.0 mph ENE4.8 kmh ENE 4.0 mph6.4 kmh 30.36 in1028.1 mb 0.00 in0.0 mm 0.00 in0.0 mm 0.00 in0.0 mm
03:15 PM 62.8°F17.1°C 58.9°F14.9°C 87% 4.0 mph NNE6.4 kmh NNE 5.1 mph8.2 kmh 30.36 in1028.1 mb 0.00 in0.0 mm 0.00 in0.0 mm 0.00 in0.0 mm
03:30 PM 63.5°F17.5°C 59.3°F15.2°C 86% 5.0 mph NW8.0 kmh NW 7.1 mph11.4 kmh 30.36 in1028.1 mb 0.00 in0.0 mm 0.00 in0.0 mm 0.00 in0.0 mm
03:45 PM 63.4°F17.4°C 59.2°F15.1°C 86% 9.0 mph NNE14.5 kmh NNE 10.1 mph16.3 kmh 30.37 in1028.4 mb 0.00 in0.0 mm 0.00 in0.0 mm 0.00 in0.0 mm
04:00 PM 61.9°F16.6°C 58.3°F14.6°C 88% 5.0 mph N8.0 kmh N 13.1 mph21.1 kmh 30.39 in1029.1 mb 0.00 in0.0 mm 0.00 in0.0 mm 0.00 in0.0 mm
09:45 PM 48.0°F8.9°C 46.1°F7.8°C 93% 3.0 mph NNE4.8 kmh NNE 7.1 mph11.4 kmh 30.54 in1034.2 mb 0.00 in0.0 mm 0.00 in0.0 mm 0.00 in0.0 mm
10:00 PM 47.8°F8.8°C 45.6°F7.6°C 92% 2.0 mph ESE3.2 kmh ESE 3.0 mph4.8 kmh 30.54 in1034.2 mb 0.00 in0.0 mm 0.00 in0.0 mm 0.00 in0.0 mm
10:15 PM 47.7°F8.7°C 45.5°F7.5°C 92% 2.0 mph E3.2 kmh E 9.1 mph14.6 kmh 30.55 in1034.5 mb 0.00 in0.0 mm 0.00 in0.0 mm 0.00 in0.0 mm
10:30 PM 47.5°F8.6°C 45.3°F7.4°C 92% 5.0 mph E8.0 kmh E 10.1 mph16.3 kmh 30.55 in1034.5 mb 0.00 in0.0 mm 0.00 in0.0 mm 0.00 in0.0 mm
10:45 PM 47.2°F8.4°C 45.3°F7.4°C 93% 3.0 mph E4.8 kmh E 7.1 mph11.4 kmh 30.55 in1034.5 mb 0.00 in0.0 mm 0.00 in0.0 mm 0.00 in0.0 mm
11:00 PM 47.0°F8.3°C 45.1°F7.3°C 93% 3.0 mph NE4.8 kmh NE 9.1 mph14.6 kmh 30.55 in1034.5 mb 0.00 in0.0 mm 0.00 in0.0 mm 0.00 in0.0 mm
11:15 PM 46.8°F8.2°C 44.9°F7.2°C 93% 2.0 mph E3.2 kmh E 10.1 mph16.3 kmh 30.55 in1034.5 mb 0.00 in0.0 mm 0.00 in0.0 mm 0.00 in0.0 mm
11:30 PM 46.3°F7.9°C 44.7°F7.1°C 94% 1.0 mph N1.6 kmh N 9.1 mph14.6 kmh 30.54 in1034.2 mb 0.00 in0.0 mm 0.00 in0.0 mm 0.00 in0.0 mm
11:45 PM 46.2°F7.9°C 44.6°F7.0°C 94% 2.0 mph E3.2 kmh E 5.1 mph8.2 kmh 30.54 in1034.2 mb 0.00 in0.0 mm 0.00 in0.0 mm 0.00 in0.0 mm